Back to Top
Banner_Quays_at_Mast_2020.jpeg
previous arrow
next arrow

Port Arrivals Report (AIS)

This report is generated from collected AIS (Automated Identification System) signals from vessels entering port.

IMO MMSI Class Flag Vessel Name Vessel type Nav Status Destination Call Sign Latitude Longitude Speed (kts) Course (T) Draught (m) LOA (m) Beam (m) Timestamp
0 227200710 B FR SARENA 3 SAILING. - FAB4075 51.6881 -8.49815 6.8 4.3 0 11 4 2026-07-28 14:46:49
0 250001361 B IE ANDROMEDA SAILING. - EI5039 51.6877 -8.49859 5.5 344.1 0 13 4 2026-07-28 14:03:09
0 250014182 A IE LADY CATHERINE PASSENGER. - EIA2647 51.688 -8.49888 10.6 343.4 0 0 0 2026-07-28 13:06:11
0 250003953 B IE ALICE AGAIN FISHING. - EI8857 51.6871 -8.49546 1.4 19.3 0 10 4 2026-07-28 12:48:53
0 250014962 B IE GWUIII DIVING / UNDERWATER Ops. - EIA3428 51.6882 -8.49875 7.9 346.7 0 0 0 2026-07-28 12:16:10
0 232036894 B GB ATARAXIA SAILING. - MJNX4 51.688 -8.49769 5.3 0.2 0 0 0 2026-07-28 08:25:23
0 250000544 B IE EXPLORER SAILING. - EI8505 51.688 -8.49868 6.6 351.1 0 13 4 2026-07-27 17:45:44
0 250014886 B IE SALUBRIOUS LADY Pleasure craft - EIA3352 51.6877 -8.49861 4.7 349.1 0 0 0 2026-07-27 17:33:38
0 250001377 B IE AILLEACHT SAILING. - EI-CG-9 51.6872 -8.49898 5.1 357.6 0 11 3 2026-07-27 17:19:23
0 368246290 B US DEJA BLUE SAILING. - WDM8769 51.6881 -8.49755 5.8 354.3 0 15 5 2026-07-27 15:35:20
0 250014182 A IE LADY CATHERINE PASSENGER. - EIA2647 51.6885 -8.49835 9.8 356.3 0 0 0 2026-07-27 13:44:45
0 250003953 B IE ALICE AGAIN FISHING. - EI8857 51.6875 -8.49673 7.7 342 0 10 4 2026-07-27 13:13:06
0 250001702 A IE ADRIANNE FISHING. Undefined CO EIGX7 51.6882 -8.4998 8.5 351.3 3.5 21 7 2026-07-27 12:59:59
0 261009127 B PL GRU SAILING. - SPA9324 51.688 -8.50039 5.2 355.1 0 9 3 2026-07-27 12:15:05
0 211316560 B DE ELDIRE SAILING. - DPWV 51.6883 -8.50058 4.1 356.1 0 13 4 2026-07-27 11:49:40
0 235061128 B GB LATIMER LADY SAILING. - 2AMV6 51.6878 -8.50046 5.2 354.2 0 13 4 2026-07-26 16:32:22
0 250014182 A IE LADY CATHERINE PASSENGER. - EIA2647 51.6871 -8.49825 9.1 351.9 0 0 0 2026-07-26 13:06:00
0 227447490 B FR MALOERA SAILING. - 51.689 -8.49668 4.7 7.1 0 13 5 2026-07-25 18:06:21
0 250014774 B IE HARPY DREDGING / UNDERWATER Ops. - EIA3240 51.689 -8.50031 9.1 342.6 0 13 4 2026-07-25 17:17:37
0 261006655 B PL MAWINGO SAILING. - SPA7316 51.6881 -8.497 2.6 352.6 0 11 4 2026-07-25 17:06:31